sensor_id;sensor_type;location;lat;lon;timestamp;pressure;altitude;pressure_sealevel;temperature;humidity
67052;BME280;53957;47.222;18.670;2023-12-14T00:02:07;98815.59;;;3.13;100.00
67052;BME280;53957;47.222;18.670;2023-12-14T00:05:11;98817.69;;;3.05;100.00
67052;BME280;53957;47.222;18.670;2023-12-14T00:08:14;98822.44;;;3.09;100.00
67052;BME280;53957;47.222;18.670;2023-12-14T05:33:11;99075.12;;;3.67;100.00
67052;BME280;53957;47.222;18.670;2023-12-14T05:36:18;99075.91;;;3.62;100.00
67052;BME280;53957;47.222;18.670;2023-12-14T05:39:21;99084.34;;;3.59;100.00
67052;BME280;53957;47.222;18.670;2023-12-14T05:42:24;99095.94;;;3.74;100.00
67052;BME280;53957;47.222;18.670;2023-12-14T05:45:27;99092.25;;;3.75;100.00
67052;BME280;53957;47.222;18.670;2023-12-14T05:48:30;99100.19;;;3.75;100.00
67052;BME280;53957;47.222;18.670;2023-12-14T05:51:33;99101.50;;;3.72;100.00
67052;BME280;53957;47.222;18.670;2023-12-14T05:54:37;99113.88;;;3.66;100.00
67052;BME280;53957;47.222;18.670;2023-12-14T05:57:40;99114.69;;;3.67;100.00
67052;BME280;53957;47.222;18.670;2023-12-14T06:00:44;99115.19;;;3.69;100.00
67052;BME280;53957;47.222;18.670;2023-12-14T06:03:47;99123.38;;;3.62;100.00
67052;BME280;53957;47.222;18.670;2023-12-14T06:06:51;99128.91;;;3.71;100.00
67052;BME280;53957;47.222;18.670;2023-12-14T06:09:54;99128.66;;;3.57;100.00
67052;BME280;53957;47.222;18.670;2023-12-14T06:12:56;99126.28;;;3.66;100.00
67052;BME280;53957;47.222;18.670;2023-12-14T06:16:00;99136.31;;;3.79;100.00
67052;BME280;53957;47.222;18.670;2023-12-14T06:19:02;99147.91;;;3.94;100.00
67052;BME280;53957;47.222;18.670;2023-12-14T06:22:06;99146.06;;;3.99;100.00
67052;BME280;53957;47.222;18.670;2023-12-14T06:25:09;99154.75;;;4.21;100.00
67052;BME280;53957;47.222;18.670;2023-12-14T06:28:12;99152.94;;;4.00;100.00
67052;BME280;53957;47.222;18.670;2023-12-14T06:31:18;99167.97;;;3.90;100.00
67052;BME280;53957;47.222;18.670;2023-12-14T06:34:24;99173.78;;;3.86;100.00
67052;BME280;53957;47.222;18.670;2023-12-14T06:37:27;99179.03;;;3.97;100.00
67052;BME280;53957;47.222;18.670;2023-12-14T06:40:30;99180.09;;;4.06;100.00
67052;BME280;53957;47.222;18.670;2023-12-14T06:43:33;99195.41;;;4.14;100.00
67052;BME280;53957;47.222;18.670;2023-12-14T06:46:36;99192.22;;;4.12;100.00
67052;BME280;53957;47.222;18.670;2023-12-14T06:49:39;99200.66;;;4.35;100.00
67052;BME280;53957;47.222;18.670;2023-12-14T06:52:44;99198.53;;;4.32;100.00
67052;BME280;53957;47.222;18.670;2023-12-14T06:55:46;99203.31;;;4.14;100.00
67052;BME280;53957;47.222;18.670;2023-12-14T06:58:50;99206.22;;;4.18;100.00
67052;BME280;53957;47.222;18.670;2023-12-14T07:01:53;99212.03;;;4.25;100.00
67052;BME280;53957;47.222;18.670;2023-12-14T07:04:56;99216.00;;;4.17;100.00
67052;BME280;53957;47.222;18.670;2023-12-14T07:07:59;99227.06;;;4.35;100.00
67052;BME280;53957;47.222;18.670;2023-12-14T07:11:03;99224.41;;;4.61;100.00
67052;BME280;53957;47.222;18.670;2023-12-14T07:14:06;99235.22;;;4.54;100.00
67052;BME280;53957;47.222;18.670;2023-12-14T07:17:09;99229.69;;;4.61;100.00
67052;BME280;53957;47.222;18.670;2023-12-14T07:20:12;99237.34;;;4.52;100.00
67052;BME280;53957;47.222;18.670;2023-12-14T07:23:15;99242.38;;;4.48;100.00
67052;BME280;53957;47.222;18.670;2023-12-14T07:26:18;99244.22;;;4.38;100.00
67052;BME280;53957;47.222;18.670;2023-12-14T07:29:21;99239.44;;;4.60;100.00
67052;BME280;53957;47.222;18.670;2023-12-14T07:32:24;99247.91;;;4.62;100.00
67052;BME280;53957;47.222;18.670;2023-12-14T08:08:45;99310.47;;;5.69;100.00
67052;BME280;53957;47.222;18.670;2023-12-14T08:11:48;99313.22;;;5.43;100.00
67052;BME280;53957;47.222;18.670;2023-12-14T08:14:52;99314.00;;;5.48;100.00
67052;BME280;53957;47.222;18.670;2023-12-14T08:17:55;99314.19;;;5.68;100.00
67052;BME280;53957;47.222;18.670;2023-12-14T08:20:59;99318.06;;;5.86;100.00
67052;BME280;53957;47.222;18.670;2023-12-14T08:24:02;99329.22;;;5.77;100.00
67052;BME280;53957;47.222;18.670;2023-12-14T08:27:05;99334.03;;;6.20;100.00
67052;BME280;53957;47.222;18.670;2023-12-14T08:30:10;99329.28;;;6.22;100.00
67052;BME280;53957;47.222;18.670;2023-12-14T08:33:13;99342.22;;;6.24;100.00
67052;BME280;53957;47.222;18.670;2023-12-14T08:36:17;99341.81;;;6.46;100.00
67052;BME280;53957;47.222;18.670;2023-12-14T08:39:20;99348.09;;;6.16;100.00
67052;BME280;53957;47.222;18.670;2023-12-14T08:42:23;99347.97;;;6.36;100.00
67052;BME280;53957;47.222;18.670;2023-12-14T08:45:26;99356.69;;;6.37;100.00
67052;BME280;53957;47.222;18.670;2023-12-14T08:48:29;99359.41;;;6.66;100.00
67052;BME280;53957;47.222;18.670;2023-12-14T08:51:33;99368.69;;;6.29;100.00
67052;BME280;53957;47.222;18.670;2023-12-14T08:54:36;99367.69;;;6.89;100.00
67052;BME280;53957;47.222;18.670;2023-12-14T08:57:39;99363.72;;;6.57;100.00
67052;BME280;53957;47.222;18.670;2023-12-14T09:00:42;99371.78;;;6.76;100.00
67052;BME280;53957;47.222;18.670;2023-12-14T09:03:45;99382.44;;;6.26;100.00
67052;BME280;53957;47.222;18.670;2023-12-14T09:06:48;99387.22;;;6.29;100.00
67052;BME280;53957;47.222;18.670;2023-12-14T09:09:51;99394.34;;;6.34;100.00
67052;BME280;53957;47.222;18.670;2023-12-14T09:12:55;99399.72;;;6.63;100.00
67052;BME280;53957;47.222;18.670;2023-12-14T09:15:57;99399.87;;;6.37;100.00
67052;BME280;53957;47.222;18.670;2023-12-14T09:19:01;99398.41;;;6.16;100.00
67052;BME280;53957;47.222;18.670;2023-12-14T09:22:04;99417.72;;;6.66;100.00
67052;BME280;53957;47.222;18.670;2023-12-14T09:25:07;99414.84;;;6.57;100.00
67052;BME280;53957;47.222;18.670;2023-12-14T09:28:12;99414.53;;;6.19;100.00
67052;BME280;53957;47.222;18.670;2023-12-14T09:31:15;99411.59;;;6.31;100.00
67052;BME280;53957;47.222;18.670;2023-12-14T09:34:19;99417.41;;;6.28;100.00
67052;BME280;53957;47.222;18.670;2023-12-14T09:37:22;99418.56;;;6.11;100.00
67052;BME280;53957;47.222;18.670;2023-12-14T09:40:28;99418.84;;;6.05;100.00
67052;BME280;53957;47.222;18.670;2023-12-14T09:43:31;99409.88;;;5.85;100.00
67052;BME280;53957;47.222;18.670;2023-12-14T09:46:36;99423.88;;;6.06;100.00
67052;BME280;53957;47.222;18.670;2023-12-14T09:49:41;99420.72;;;6.04;100.00
67052;BME280;53957;47.222;18.670;2023-12-14T09:52:45;99429.72;;;6.03;100.00
67052;BME280;53957;47.222;18.670;2023-12-14T09:55:51;99421.50;;;6.00;100.00
67052;BME280;53957;47.222;18.670;2023-12-14T09:58:54;99419.00;;;6.29;100.00
67052;BME280;53957;47.222;18.670;2023-12-14T10:02:13;99417.47;;;6.18;100.00
67052;BME280;53957;47.222;18.670;2023-12-14T10:05:17;99420.69;;;6.09;100.00
67052;BME280;53957;47.222;18.670;2023-12-14T10:08:20;99438.31;;;6.35;100.00
67052;BME280;53957;47.222;18.670;2023-12-14T10:11:24;99441.09;;;6.54;100.00
67052;BME280;53957;47.222;18.670;2023-12-14T10:14:27;99443.41;;;6.21;100.00
67052;BME280;53957;47.222;18.670;2023-12-14T10:17:30;99437.00;;;6.32;100.00
67052;BME280;53957;47.222;18.670;2023-12-14T10:20:36;99442.88;;;6.24;100.00
67052;BME280;53957;47.222;18.670;2023-12-14T10:23:45;99444.31;;;6.45;100.00
67052;BME280;53957;47.222;18.670;2023-12-14T10:26:49;99446.44;;;6.49;100.00
67052;BME280;53957;47.222;18.670;2023-12-14T10:29:55;99449.59;;;6.56;100.00
67052;BME280;53957;47.222;18.670;2023-12-14T10:32:58;99452.97;;;6.61;100.00
67052;BME280;53957;47.222;18.670;2023-12-14T10:36:02;99456.06;;;6.79;100.00
67052;BME280;53957;47.222;18.670;2023-12-14T10:39:08;99451.63;;;6.69;100.00
67052;BME280;53957;47.222;18.670;2023-12-14T10:42:16;99454.66;;;6.47;100.00
67052;BME280;53957;47.222;18.670;2023-12-14T10:45:29;99463.25;;;6.73;100.00
67052;BME280;53957;47.222;18.670;2023-12-14T10:48:35;99458.91;;;6.88;100.00
67052;BME280;53957;47.222;18.670;2023-12-14T10:51:39;99457.19;;;6.68;100.00
67052;BME280;53957;47.222;18.670;2023-12-14T10:54:52;99466.69;;;7.08;100.00
67052;BME280;53957;47.222;18.670;2023-12-14T10:57:57;99477.38;;;6.98;100.00
67052;BME280;53957;47.222;18.670;2023-12-14T11:01:01;99472.94;;;6.88;100.00
67052;BME280;53957;47.222;18.670;2023-12-14T11:04:06;99477.38;;;6.98;100.00
67052;BME280;53957;47.222;18.670;2023-12-14T11:07:10;99481.72;;;6.84;100.00
67052;BME280;53957;47.222;18.670;2023-12-14T11:10:14;99482.69;;;6.98;100.00
67052;BME280;53957;47.222;18.670;2023-12-14T11:13:17;99481.53;;;7.09;100.00
67052;BME280;53957;47.222;18.670;2023-12-14T11:16:21;99485.53;;;7.07;100.00
67052;BME280;53957;47.222;18.670;2023-12-14T11:19:26;99479.25;;;6.98;100.00
67052;BME280;53957;47.222;18.670;2023-12-14T11:22:30;99479.56;;;6.91;100.00
67052;BME280;53957;47.222;18.670;2023-12-14T11:25:35;99480.91;;;6.88;100.00
67052;BME280;53957;47.222;18.670;2023-12-14T11:28:48;99487.72;;;7.00;100.00
67052;BME280;53957;47.222;18.670;2023-12-14T11:31:52;99483.88;;;7.16;100.00
67052;BME280;53957;47.222;18.670;2023-12-14T11:34:55;99488.34;;;7.80;100.00
67052;BME280;53957;47.222;18.670;2023-12-14T11:37:58;99491.59;;;7.71;100.00
67052;BME280;53957;47.222;18.670;2023-12-14T11:41:02;99495.66;;;8.17;100.00
67052;BME280;53957;47.222;18.670;2023-12-14T11:44:06;99494.56;;;7.94;100.00
67052;BME280;53957;47.222;18.670;2023-12-14T11:47:09;99499.38;;;7.92;100.00
67052;BME280;53957;47.222;18.670;2023-12-14T11:50:12;99496.50;;;8.32;100.00
67052;BME280;53957;47.222;18.670;2023-12-14T11:53:17;99494.41;;;7.85;100.00
67052;BME280;53957;47.222;18.670;2023-12-14T11:56:21;99507.69;;;7.56;100.00
67052;BME280;53957;47.222;18.670;2023-12-14T11:59:28;99514.22;;;7.34;100.00
